Time;durP1;ratioP1;P1;durP2;ratioP2;P2;SDS_P1;SDS_P2;PMS_P1;PMS_P2;Temp;Humidity;BMP_temperature;BMP_pressure;BME280_temperature;BME280_humidity;BME280_pressure;Samples;Min_cycle;Max_cycle;Signal;HPM_P1;HPM_P2
2021/07/08 00:02:09;;;;;;;6.50;5.90;;;;;;;;;;5074160;28;20463;-63
2021/07/08 00:04:37;;;;;;;6.67;5.73;;;;;;;;;;5074066;28;20446;-62
2021/07/08 00:07:06;;;;;;;6.90;6.40;;;;;;;;;;5073780;28;20451;-63
2021/07/08 00:09:33;;;;;;;6.30;5.67;;;;;;;;;;5074029;28;20447;-63
2021/07/08 00:12:01;;;;;;;9.07;6.40;;;;;;;;;;5073606;28;21000;-62
2021/07/08 00:14:28;;;;;;;8.70;6.53;;;;;;;;;;5073410;28;20486;-63
2021/07/08 00:16:55;;;;;;;9.50;6.93;;;;;;;;;;5073342;28;20446;-63
2021/07/08 00:19:22;;;;;;;6.50;5.77;;;;;;;;;;5073237;28;20447;-62
2021/07/08 00:21:50;;;;;;;7.03;6.30;;;;;;;;;;5073230;28;20472;-63
2021/07/08 00:24:18;;;;;;;8.23;6.10;;;;;;;;;;5075928;28;20493;-62
2021/07/08 00:26:47;;;;;;;7.57;6.00;;;;;;;;;;5077489;28;20439;-63
2021/07/08 00:29:14;;;;;;;7.00;6.33;;;;;;;;;;5077102;28;20943;-62
2021/07/08 00:31:41;;;;;;;9.07;6.83;;;;;;;;;;5077205;28;20516;-63
2021/07/08 00:34:09;;;;;;;7.37;6.53;;;;;;;;;;5077446;28;20470;-62
2021/07/08 00:36:36;;;;;;;8.10;7.00;;;;;;;;;;5077433;28;20496;-63
2021/07/08 00:39:04;;;;;;;6.97;5.90;;;;;;;;;;5077647;28;20443;-61
2021/07/08 00:41:33;;;;;;;9.63;6.83;;;;;;;;;;5076869;28;20951;-64
2021/07/08 00:44:00;;;;;;;10.20;6.23;;;;;;;;;;5077238;28;20439;-62
2021/07/08 00:46:27;;;;;;;9.33;6.13;;;;;;;;;;5076863;28;20447;-62
2021/07/08 00:48:54;;;;;;;7.20;6.50;;;;;;;;;;5076714;28;20447;-63
2021/07/08 00:51:22;;;;;;;9.40;6.13;;;;;;;;;;5076982;28;20446;-63
2021/07/08 00:53:49;;;;;;;6.33;5.73;;;;;;;;;;5076803;28;20479;-63
2021/07/08 00:56:17;;;;;;;7.03;6.07;;;;;;;;;;5076935;28;20492;-63
2021/07/08 00:59:01;;;;;;;7.47;5.97;;;;;;;;;;5076728;28;20512;-63
2021/07/08 01:01:28;;;;;;;7.70;5.90;;;;;;;;;;5076418;28;20439;-62
2021/07/08 01:03:56;;;;;;;6.40;5.80;;;;;;;;;;5076391;28;20439;-63
2021/07/08 01:06:23;;;;;;;6.63;5.93;;;;;;;;;;5076121;28;20873;-63
2021/07/08 01:08:51;;;;;;;7.30;5.90;;;;;;;;;;5076610;28;20500;-63
2021/07/08 01:11:18;;;;;;;7.03;6.30;;;;;;;;;;5076589;28;20514;-63
2021/07/08 01:13:45;;;;;;;6.17;5.40;;;;;;;;;;5076387;28;20513;-62
2021/07/08 01:16:14;;;;;;;6.53;5.67;;;;;;;;;;5076564;28;20447;-63
2021/07/08 01:18:41;;;;;;;7.07;6.27;;;;;;;;;;5076474;28;20439;-63
2021/07/08 01:21:22;;;;;;;8.80;5.53;;;;;;;;;;5076383;28;20446;-62
2021/07/08 01:23:49;;;;;;;9.40;5.33;;;;;;;;;;5075877;28;20467;-63
2021/07/08 01:26:17;;;;;;;6.73;5.60;;;;;;;;;;5079475;28;20447;-63
2021/07/08 01:28:44;;;;;;;5.10;4.60;;;;;;;;;;5076357;28;20446;-63
2021/07/08 01:31:11;;;;;;;7.13;5.47;;;;;;;;;;5076201;28;20845;-63
2021/07/08 01:33:39;;;;;;;5.00;4.50;;;;;;;;;;5075925;28;20479;-63
2021/07/08 01:36:06;;;;;;;8.07;5.50;;;;;;;;;;5075112;28;20927;-63
2021/07/08 01:38:35;;;;;;;6.63;5.40;;;;;;;;;;5075729;28;20501;-63
2021/07/08 01:41:02;;;;;;;5.30;4.80;;;;;;;;;;5076015;28;20466;-63
2021/07/08 01:43:29;;;;;;;8.00;5.10;;;;;;;;;;5075499;28;20512;-63
2021/07/08 01:45:58;;;;;;;6.20;4.30;;;;;;;;;;5075525;28;20508;-63
2021/07/08 01:48:25;;;;;;;5.57;4.60;;;;;;;;;;5075998;28;20520;-62
2021/07/08 01:50:52;;;;;;;8.63;4.40;;;;;;;;;;5075799;28;20497;-63
2021/07/08 01:53:19;;;;;;;5.90;4.50;;;;;;;;;;5075388;28;21012;-63
2021/07/08 01:55:48;;;;;;;4.77;4.10;;;;;;;;;;5075500;28;20443;-63
2021/07/08 01:58:15;;;;;;;5.90;4.63;;;;;;;;;;5076150;28;20934;-62
2021/07/08 02:00:42;;;;;;;5.00;4.50;;;;;;;;;;5076305;28;20458;-63
2021/07/08 02:03:10;;;;;;;6.33;5.10;;;;;;;;;;5075732;28;20508;-63
2021/07/08 02:05:37;;;;;;;5.43;4.93;;;;;;;;;;5075107;28;20959;-62
2021/07/08 02:08:05;;;;;;;6.63;4.63;;;;;;;;;;5075126;28;20540;-63
2021/07/08 02:10:32;;;;;;;7.47;4.33;;;;;;;;;;5075293;28;20496;-63
2021/07/08 02:13:00;;;;;;;6.20;4.63;;;;;;;;;;5075410;28;20509;-62
2021/07/08 02:15:28;;;;;;;7.43;4.50;;;;;;;;;;5075736;28;20451;-62
2021/07/08 02:17:55;;;;;;;4.60;4.20;;;;;;;;;;5075535;28;20849;-62
2021/07/08 02:20:22;;;;;;;6.27;5.10;;;;;;;;;;5075318;28;20939;-63
2021/07/08 02:22:50;;;;;;;5.83;4.57;;;;;;;;;;5075559;28;20979;-61
2021/07/08 02:25:17;;;;;;;5.57;4.10;;;;;;;;;;5075691;28;20799;-62
2021/07/08 02:27:44;;;;;;;5.27;3.93;;;;;;;;;;5075401;28;20447;-62
2021/07/08 02:30:14;;;;;;;5.27;4.20;;;;;;;;;;5076098;28;20454;-61
2021/07/08 02:32:42;;;;;;;4.57;4.17;;;;;;;;;;5075489;28;20501;-62
2021/07/08 02:35:11;;;;;;;6.73;4.70;;;;;;;;;;5076132;28;20486;-63
2021/07/08 02:37:39;;;;;;;8.27;4.50;;;;;;;;;;5074733;28;20448;-63
2021/07/08 02:40:08;;;;;;;5.03;4.03;;;;;;;;;;5074688;28;21018;-61
2021/07/08 02:42:35;;;;;;;6.80;4.63;;;;;;;;;;5074805;28;20498;-61
2021/07/08 02:45:02;;;;;;;8.53;4.40;;;;;;;;;;5074541;28;20981;-61
2021/07/08 02:47:31;;;;;;;9.33;4.30;;;;;;;;;;5074267;28;20796;-62
2021/07/08 02:49:58;;;;;;;4.57;4.17;;;;;;;;;;5074526;28;20451;-62
2021/07/08 02:52:26;;;;;;;5.87;4.20;;;;;;;;;;5074564;28;20525;-62
2021/07/08 02:54:53;;;;;;;5.30;4.00;;;;;;;;;;5074489;28;20471;-63
2021/07/08 02:57:20;;;;;;;6.07;4.20;;;;;;;;;;5074159;28;20431;-64
2021/07/08 02:59:48;;;;;;;5.90;4.37;;;;;;;;;;5075242;28;20517;-63
2021/07/08 03:02:15;;;;;;;8.43;4.50;;;;;;;;;;5074300;28;20536;-63
2021/07/08 03:04:44;;;;;;;5.73;4.20;;;;;;;;;;5074192;28;20485;-63
2021/07/08 03:07:11;;;;;;;9.03;4.87;;;;;;;;;;5074120;28;20966;-62
2021/07/08 03:09:38;;;;;;;5.13;3.87;;;;;;;;;;5074024;28;20505;-63
2021/07/08 03:12:06;;;;;;;5.27;4.00;;;;;;;;;;5073809;28;20520;-63
2021/07/08 03:14:34;;;;;;;5.10;4.00;;;;;;;;;;5074236;28;20475;-63
2021/07/08 03:17:01;;;;;;;9.83;4.90;;;;;;;;;;5074198;28;20455;-63
2021/07/08 03:19:28;;;;;;;5.50;4.03;;;;;;;;;;5074089;28;20498;-63
2021/07/08 03:21:57;;;;;;;7.03;4.60;;;;;;;;;;5073906;28;20517;-63
2021/07/08 03:24:24;;;;;;;6.30;4.20;;;;;;;;;;5074043;28;20444;-63
2021/07/08 03:26:51;;;;;;;5.40;4.50;;;;;;;;;;5073978;28;20447;-63
2021/07/08 03:29:18;;;;;;;8.47;5.20;;;;;;;;;;5074103;28;20516;-62
2021/07/08 03:31:46;;;;;;;5.00;4.00;;;;;;;;;;5073798;28;20818;-62
2021/07/08 03:34:13;;;;;;;8.20;4.40;;;;;;;;;;5073468;28;21070;-63
2021/07/08 03:36:40;;;;;;;6.37;4.93;;;;;;;;;;5077379;28;20465;-62
2021/07/08 03:39:09;;;;;;;6.77;4.37;;;;;;;;;;5077720;28;20435;-63
2021/07/08 03:41:36;;;;;;;6.57;4.00;;;;;;;;;;5077243;28;20514;-62
2021/07/08 03:44:03;;;;;;;6.40;3.80;;;;;;;;;;5076441;28;20444;-62
2021/07/08 03:46:31;;;;;;;6.70;4.60;;;;;;;;;;5076297;28;20497;-62
2021/07/08 03:48:58;;;;;;;5.80;4.30;;;;;;;;;;5076106;28;20448;-62
2021/07/08 03:51:25;;;;;;;6.23;4.43;;;;;;;;;;5075348;28;20466;-63
2021/07/08 03:53:52;;;;;;;6.47;4.30;;;;;;;;;;5074441;28;20479;-62
2021/07/08 03:56:21;;;;;;;6.73;4.30;;;;;;;;;;5076815;28;20448;-62
2021/07/08 03:58:48;;;;;;;7.57;4.10;;;;;;;;;;5074391;28;20500;-63
2021/07/08 04:01:16;;;;;;;5.00;3.70;;;;;;;;;;5074806;28;20443;-62
2021/07/08 04:03:43;;;;;;;11.70;4.83;;;;;;;;;;5073911;28;20516;-63
2021/07/08 04:08:20;;;;;;;7.20;4.50;;;;;;;;;;5091905;27;20618;-62
2021/07/08 04:10:47;;;;;;;6.40;4.10;;;;;;;;;;5090987;28;20446;-62
2021/07/08 04:13:15;;;;;;;7.30;4.53;;;;;;;;;;5090610;28;20997;-62
2021/07/08 04:15:43;;;;;;;5.93;3.90;;;;;;;;;;5093016;28;20451;-66
2021/07/08 04:18:11;;;;;;;7.50;4.40;;;;;;;;;;5099032;28;20446;-63
2021/07/08 04:20:39;;;;;;;7.07;4.53;;;;;;;;;;5098917;28;20464;-63
2021/07/08 04:23:07;;;;;;;6.43;4.90;;;;;;;;;;5096713;28;20522;-62
2021/07/08 04:25:36;;;;;;;8.83;5.27;;;;;;;;;;5095091;28;20861;-62
2021/07/08 04:28:03;;;;;;;7.53;3.97;;;;;;;;;;5092443;28;20483;-62
2021/07/08 04:30:30;;;;;;;11.00;4.60;;;;;;;;;;5091958;28;20527;-62
2021/07/08 04:32:58;;;;;;;6.93;4.70;;;;;;;;;;5091659;28;20473;-62
2021/07/08 04:35:29;;;;;;;5.20;4.70;;;;;;;;;;5091801;28;20527;-62
2021/07/08 04:37:57;;;;;;;6.40;3.83;;;;;;;;;;5091341;28;20427;-62
2021/07/08 04:40:24;;;;;;;12.83;4.60;;;;;;;;;;5091482;28;20533;-62
2021/07/08 04:42:53;;;;;;;6.47;5.00;;;;;;;;;;5090994;28;20470;-62
2021/07/08 04:45:21;;;;;;;5.80;4.37;;;;;;;;;;5090619;28;20856;-62
2021/07/08 04:47:48;;;;;;;5.43;4.40;;;;;;;;;;5090444;28;20474;-62
2021/07/08 04:50:16;;;;;;;11.57;5.10;;;;;;;;;;5091291;28;20447;-61
2021/07/08 04:52:44;;;;;;;5.07;4.33;;;;;;;;;;5090678;28;20466;-61
2021/07/08 04:55:12;;;;;;;7.00;4.07;;;;;;;;;;5091836;28;20446;-61
2021/07/08 04:57:39;;;;;;;9.50;5.23;;;;;;;;;;5091520;28;20926;-61
2021/07/08 05:00:09;;;;;;;7.30;4.70;;;;;;;;;;5090951;28;21031;-61
2021/07/08 05:02:38;;;;;;;8.70;4.27;;;;;;;;;;5091237;28;20462;-61
2021/07/08 05:05:05;;;;;;;7.17;4.63;;;;;;;;;;5089607;28;20540;-61
2021/07/08 05:07:33;;;;;;;7.80;4.30;;;;;;;;;;5089578;28;20490;-61
2021/07/08 05:10:00;;;;;;;9.20;4.17;;;;;;;;;;5089363;28;20857;-62
2021/07/08 05:12:27;;;;;;;5.20;4.13;;;;;;;;;;5089554;28;20474;-61
2021/07/08 05:14:54;;;;;;;5.60;4.83;;;;;;;;;;5089373;28;20450;-62
2021/07/08 05:17:23;;;;;;;7.90;4.90;;;;;;;;;;5089617;28;20489;-62
2021/07/08 05:19:50;;;;;;;6.23;4.43;;;;;;;;;;5075264;28;20849;-62
2021/07/08 05:22:20;;;;;;;4.67;3.93;;;;;;;;;;5075723;28;20521;-62
2021/07/08 05:24:47;;;;;;;4.67;4.27;;;;;;;;;;5076612;28;20487;-61
2021/07/08 05:27:16;;;;;;;7.10;3.83;;;;;;;;;;5075755;28;20899;-61
2021/07/08 05:29:44;;;;;;;5.37;3.60;;;;;;;;;;5075637;28;20931;-61
2021/07/08 05:32:13;;;;;;;7.30;4.30;;;;;;;;;;5075914;28;20471;-64
2021/07/08 05:34:41;;;;;;;9.63;3.90;;;;;;;;;;5076103;28;20538;-63
2021/07/08 05:37:09;;;;;;;6.23;4.07;;;;;;;;;;5076283;28;20534;-63
2021/07/08 05:39:36;;;;;;;12.70;4.23;;;;;;;;;;5075394;28;20832;-61
2021/07/08 05:42:04;;;;;;;9.90;4.20;;;;;;;;;;5075378;28;20831;-60
2021/07/08 05:44:32;;;;;;;8.03;4.00;;;;;;;;;;5075886;28;20932;-60
2021/07/08 05:46:59;;;;;;;5.47;3.50;;;;;;;;;;5075382;28;20475;-61
2021/07/08 05:49:26;;;;;;;4.97;3.43;;;;;;;;;;5075648;28;20443;-60
2021/07/08 05:51:55;;;;;;;4.00;3.60;;;;;;;;;;5075819;28;20597;-61
2021/07/08 05:54:22;;;;;;;4.53;4.10;;;;;;;;;;5075271;28;20444;-61
2021/07/08 05:56:50;;;;;;;7.90;4.33;;;;;;;;;;5076002;28;20448;-60
2021/07/08 05:59:17;;;;;;;10.17;4.33;;;;;;;;;;5075539;28;20451;-61
2021/07/08 06:01:44;;;;;;;7.53;4.23;;;;;;;;;;5075315;28;21000;-62
2021/07/08 06:04:12;;;;;;;5.30;3.80;;;;;;;;;;5075363;28;20452;-61
2021/07/08 06:06:39;;;;;;;4.07;3.67;;;;;;;;;;5074935;28;20452;-62
2021/07/08 06:09:07;;;;;;;5.33;4.33;;;;;;;;;;5075294;28;20517;-61
2021/07/08 06:11:35;;;;;;;9.30;3.97;;;;;;;;;;5074693;28;20931;-60
2021/07/08 06:14:02;;;;;;;5.93;4.03;;;;;;;;;;5075260;28;20443;-62
2021/07/08 06:16:29;;;;;;;9.60;4.70;;;;;;;;;;5074958;28;20448;-63
2021/07/08 06:18:56;;;;;;;7.93;3.97;;;;;;;;;;5074721;28;20448;-61
2021/07/08 06:21:24;;;;;;;7.10;3.90;;;;;;;;;;5075923;28;20444;-62
2021/07/08 06:23:51;;;;;;;7.57;4.27;;;;;;;;;;5074826;28;20503;-61
2021/07/08 06:26:20;;;;;;;9.20;4.37;;;;;;;;;;5074782;28;20450;-61
2021/07/08 06:28:47;;;;;;;5.27;4.30;;;;;;;;;;5075976;28;20484;-62
2021/07/08 06:31:15;;;;;;;6.43;4.83;;;;;;;;;;5076246;28;20496;-62
2021/07/08 06:33:43;;;;;;;4.10;3.57;;;;;;;;;;5074308;28;20509;-63
2021/07/08 06:36:11;;;;;;;11.23;6.10;;;;;;;;;;5073826;28;20977;-61
2021/07/08 06:38:38;;;;;;;9.17;4.70;;;;;;;;;;5073992;28;20440;-62
2021/07/08 06:41:05;;;;;;;8.53;4.47;;;;;;;;;;5074532;28;20450;-62
2021/07/08 06:43:34;;;;;;;7.43;4.47;;;;;;;;;;5074282;28;20471;-62
2021/07/08 06:46:01;;;;;;;14.00;5.10;;;;;;;;;;5074346;28;20443;-61
2021/07/08 06:48:29;;;;;;;11.80;4.40;;;;;;;;;;5073971;28;20478;-60
2021/07/08 06:50:56;;;;;;;11.33;4.67;;;;;;;;;;5074046;28;20454;-60
2021/07/08 06:53:23;;;;;;;9.27;5.10;;;;;;;;;;5073784;28;20462;-61
2021/07/08 06:55:51;;;;;;;8.17;5.40;;;;;;;;;;5074229;28;20451;-61
2021/07/08 06:58:18;;;;;;;10.07;5.30;;;;;;;;;;5074114;28;20439;-61
2021/07/08 07:00:46;;;;;;;6.30;4.40;;;;;;;;;;5073821;28;20448;-61
2021/07/08 07:03:14;;;;;;;8.17;4.70;;;;;;;;;;5074110;28;20599;-62
2021/07/08 07:05:41;;;;;;;6.90;5.20;;;;;;;;;;5073884;28;20450;-61
2021/07/08 07:08:08;;;;;;;7.90;5.10;;;;;;;;;;5073613;28;20918;-59
2021/07/08 07:10:36;;;;;;;7.50;4.37;;;;;;;;;;5073735;28;20439;-61
2021/07/08 07:13:05;;;;;;;7.27;5.30;;;;;;;;;;5073753;28;20488;-61
2021/07/08 07:15:32;;;;;;;10.47;4.50;;;;;;;;;;5073692;28;20442;-62
2021/07/08 07:18:04;;;;;;;6.90;5.00;;;;;;;;;;5073932;28;20928;-61
2021/07/08 07:20:31;;;;;;;7.73;3.97;;;;;;;;;;5073624;28;20459;-61
2021/07/08 07:22:58;;;;;;;6.87;4.40;;;;;;;;;;5073565;28;20531;-60
2021/07/08 07:25:26;;;;;;;10.27;5.20;;;;;;;;;;5073927;28;20452;-61
2021/07/08 07:27:54;;;;;;;8.93;4.80;;;;;;;;;;5073465;28;20480;-62
2021/07/08 07:30:22;;;;;;;7.60;4.47;;;;;;;;;;5073561;28;20499;-61
2021/07/08 07:32:50;;;;;;;8.03;4.80;;;;;;;;;;5073201;28;20467;-62
2021/07/08 07:35:19;;;;;;;11.17;5.60;;;;;;;;;;5073531;28;20517;-61
2021/07/08 07:37:46;;;;;;;9.03;4.57;;;;;;;;;;5073296;28;20496;-62
2021/07/08 07:40:13;;;;;;;9.67;4.30;;;;;;;;;;5073079;28;20458;-60
2021/07/08 07:42:41;;;;;;;6.80;4.70;;;;;;;;;;5072890;28;20473;-62
2021/07/08 07:45:09;;;;;;;10.67;4.83;;;;;;;;;;5074564;28;20458;-61
2021/07/08 07:47:36;;;;;;;6.87;5.00;;;;;;;;;;5072950;28;20476;-61
2021/07/08 07:50:04;;;;;;;5.30;4.30;;;;;;;;;;5072871;28;20498;-61
2021/07/08 07:52:33;;;;;;;5.40;4.90;;;;;;;;;;5072621;28;20473;-61
2021/07/08 07:55:01;;;;;;;8.50;4.40;;;;;;;;;;5073184;28;20550;-61
2021/07/08 07:57:28;;;;;;;6.67;4.40;;;;;;;;;;5073162;28;20450;-61
2021/07/08 07:59:55;;;;;;;7.90;4.10;;;;;;;;;;5073151;28;20450;-61
2021/07/08 08:02:23;;;;;;;9.13;4.80;;;;;;;;;;5072665;28;20825;-60
2021/07/08 08:04:57;;;;;;;8.80;3.70;;;;;;;;;;5072666;28;20491;-60
2021/07/08 08:10:10;;;;;;;7.87;3.90;;;;;;;;;;5073011;28;20401;-60
2021/07/08 08:12:38;;;;;;;5.53;4.13;;;;;;;;;;5072954;28;20579;-61
2021/07/08 08:15:06;;;;;;;12.77;5.17;;;;;;;;;;5072586;28;20450;-62
2021/07/08 08:17:33;;;;;;;6.23;4.20;;;;;;;;;;5072939;28;20523;-59
2021/07/08 08:20:00;;;;;;;5.20;3.97;;;;;;;;;;5072583;28;20527;-61
2021/07/08 08:22:28;;;;;;;5.27;3.90;;;;;;;;;;5072455;28;20472;-62
2021/07/08 08:24:55;;;;;;;6.93;4.30;;;;;;;;;;5072754;28;20506;-60
2021/07/08 08:27:24;;;;;;;5.87;4.00;;;;;;;;;;5072829;28;20516;-60
2021/07/08 08:29:51;;;;;;;5.47;3.27;;;;;;;;;;5072435;28;20436;-60
2021/07/08 08:32:18;;;;;;;4.50;3.33;;;;;;;;;;5072189;28;20517;-60
2021/07/08 08:34:45;;;;;;;5.93;3.37;;;;;;;;;;5074129;28;20501;-60
2021/07/08 08:37:13;;;;;;;4.93;3.20;;;;;;;;;;5072754;28;20451;-60
2021/07/08 08:39:40;;;;;;;5.90;3.40;;;;;;;;;;5073167;28;20854;-59
2021/07/08 08:42:08;;;;;;;5.90;4.00;;;;;;;;;;5072088;28;20465;-59
2021/07/08 08:44:37;;;;;;;6.73;3.30;;;;;;;;;;5072538;28;20534;-61
2021/07/08 08:47:08;;;;;;;6.33;3.90;;;;;;;;;;5072366;28;20943;-61
2021/07/08 08:49:37;;;;;;;6.27;4.30;;;;;;;;;;5072843;28;20598;-60
2021/07/08 08:52:07;;;;;;;11.40;3.67;;;;;;;;;;5071903;28;20471;-61
2021/07/08 08:54:34;;;;;;;7.60;4.17;;;;;;;;;;5075021;28;20460;-60
2021/07/08 08:57:01;;;;;;;7.07;4.70;;;;;;;;;;5075935;28;21009;-60
2021/07/08 08:59:29;;;;;;;6.77;4.33;;;;;;;;;;5076173;28;20946;-59
2021/07/08 09:02:11;;;;;;;6.23;3.60;;;;;;;;;;5076471;28;20467;-61
2021/07/08 09:04:40;;;;;;;6.43;3.93;;;;;;;;;;5076807;28;20499;-60
2021/07/08 09:07:23;;;;;;;6.03;3.80;;;;;;;;;;5076988;28;20462;-60
2021/07/08 09:09:53;;;;;;;7.47;4.17;;;;;;;;;;5076714;28;20945;-61
2021/07/08 09:12:22;;;;;;;6.63;3.90;;;;;;;;;;5077004;28;20517;-61
2021/07/08 09:14:50;;;;;;;8.27;3.87;;;;;;;;;;5077607;28;20798;-60
2021/07/08 09:17:18;;;;;;;8.20;5.10;;;;;;;;;;5077095;28;20438;-61
2021/07/08 09:19:46;;;;;;;8.50;6.17;;;;;;;;;;5076732;28;20888;-61
2021/07/08 09:22:27;;;;;;;3.87;3.53;;;;;;;;;;5076898;28;20464;-61
2021/07/08 09:24:54;;;;;;;7.30;3.80;;;;;;;;;;5076402;28;20483;-60
2021/07/08 09:27:25;;;;;;;4.63;4.10;;;;;;;;;;5076176;28;20450;-60
2021/07/08 09:29:52;;;;;;;4.20;3.40;;;;;;;;;;5075808;28;21057;-61
2021/07/08 09:32:20;;;;;;;6.80;3.83;;;;;;;;;;5075874;28;20524;-62
2021/07/08 09:34:50;;;;;;;6.30;4.07;;;;;;;;;;5075521;28;20941;-62
2021/07/08 09:37:18;;;;;;;5.20;3.50;;;;;;;;;;5075192;28;20968;-62
2021/07/08 09:39:46;;;;;;;7.00;4.10;;;;;;;;;;5075644;28;20765;-62
2021/07/08 09:42:13;;;;;;;7.30;4.40;;;;;;;;;;5075197;28;20520;-61
2021/07/08 09:44:41;;;;;;;4.97;4.27;;;;;;;;;;5075395;28;20449;-63
2021/07/08 09:47:20;;;;;;;5.77;3.63;;;;;;;;;;5075356;28;21002;-63
2021/07/08 09:49:49;;;;;;;9.03;4.07;;;;;;;;;;5075300;28;20968;-62
2021/07/08 09:52:16;;;;;;;7.17;4.20;;;;;;;;;;5076156;28;20508;-61
2021/07/08 09:54:49;;;;;;;6.40;4.00;;;;;;;;;;5079745;28;20456;-63
2021/07/08 09:57:31;;;;;;;7.30;4.60;;;;;;;;;;5079311;28;20431;-63
2021/07/08 09:59:58;;;;;;;5.10;4.43;;;;;;;;;;5078930;28;20975;-64
2021/07/08 10:02:29;;;;;;;9.20;4.83;;;;;;;;;;5077835;28;20888;-62
2021/07/08 10:04:58;;;;;;;5.23;4.00;;;;;;;;;;5075174;28;20427;-60
2021/07/08 10:07:26;;;;;;;5.20;3.80;;;;;;;;;;5075163;28;20458;-61
2021/07/08 10:09:53;;;;;;;7.73;4.20;;;;;;;;;;5074926;28;20581;-62
2021/07/08 10:12:20;;;;;;;8.73;5.40;;;;;;;;;;5075891;28;20467;-62
2021/07/08 10:14:48;;;;;;;6.30;4.17;;;;;;;;;;5074941;28;20543;-62
2021/07/08 10:17:16;;;;;;;4.30;3.67;;;;;;;;;;5074746;28;20446;-62
2021/07/08 10:19:45;;;;;;;7.17;4.10;;;;;;;;;;5074925;28;20446;-62
2021/07/08 10:22:14;;;;;;;4.83;3.53;;;;;;;;;;5074656;28;20470;-63
2021/07/08 10:24:41;;;;;;;4.47;3.37;;;;;;;;;;5074568;28;20448;-62
2021/07/08 10:27:08;;;;;;;7.57;4.03;;;;;;;;;;5074876;28;20448;-62
2021/07/08 10:29:38;;;;;;;6.60;4.20;;;;;;;;;;5075003;28;20549;-62
2021/07/08 10:32:05;;;;;;;6.60;3.73;;;;;;;;;;5074175;28;21095;-63
2021/07/08 10:34:43;;;;;;;7.23;3.73;;;;;;;;;;5074093;28;21019;-63
2021/07/08 10:37:10;;;;;;;5.90;3.90;;;;;;;;;;5074112;28;20446;-63
2021/07/08 10:39:42;;;;;;;5.60;3.53;;;;;;;;;;5073961;28;20492;-61
2021/07/08 10:42:09;;;;;;;10.20;3.40;;;;;;;;;;5074357;28;20500;-62
2021/07/08 10:44:44;;;;;;;5.93;3.40;;;;;;;;;;5074381;28;20879;-63
2021/07/08 10:47:30;;;;;;;6.93;3.80;;;;;;;;;;5075572;28;20832;-63
2021/07/08 10:49:57;;;;;;;5.73;4.20;;;;;;;;;;5074108;28;20486;-62
2021/07/08 10:52:39;;;;;;;3.40;2.83;;;;;;;;;;5074937;28;20992;-63
2021/07/08 10:55:09;;;;;;;5.50;3.53;;;;;;;;;;5077139;28;20442;-62
2021/07/08 10:57:37;;;;;;;6.97;3.50;;;;;;;;;;5075574;28;20500;-63
2021/07/08 11:00:05;;;;;;;5.10;3.63;;;;;;;;;;5075705;28;20502;-62
2021/07/08 11:02:51;;;;;;;4.00;3.60;;;;;;;;;;5073851;28;20990;-63
2021/07/08 11:05:48;;;;;;;5.90;3.40;;;;;;;;;;5074184;28;20553;-63
2021/07/08 11:08:37;;;;;;;7.93;3.80;;;;;;;;;;5073472;28;20462;-63
2021/07/08 11:11:06;;;;;;;4.83;2.57;;;;;;;;;;5074561;28;20516;-62
2021/07/08 11:13:36;;;;;;;9.00;3.30;;;;;;;;;;5073395;28;20474;-63
2021/07/08 11:16:04;;;;;;;6.33;3.20;;;;;;;;;;5073281;28;20478;-61
2021/07/08 11:18:31;;;;;;;5.40;3.13;;;;;;;;;;5073615;28;20470;-62
2021/07/08 11:20:59;;;;;;;5.40;2.87;;;;;;;;;;5073044;28;20494;-63
2021/07/08 11:23:43;;;;;;;6.60;3.20;;;;;;;;;;5073642;28;21007;-63
2021/07/08 11:26:12;;;;;;;3.10;2.63;;;;;;;;;;5073543;28;20430;-63
2021/07/08 11:28:41;;;;;;;4.63;2.80;;;;;;;;;;5073601;28;20992;-62
2021/07/08 11:31:09;;;;;;;7.80;3.40;;;;;;;;;;5073727;28;20868;-62
2021/07/08 11:33:37;;;;;;;7.40;5.10;;;;;;;;;;5073564;28;21009;-62
2021/07/08 11:36:10;;;;;;;18.43;16.60;;;;;;;;;;5073729;28;20442;-62
2021/07/08 11:38:41;;;;;;;8.53;6.00;;;;;;;;;;5073929;28;20433;-63
2021/07/08 11:41:09;;;;;;;5.73;4.27;;;;;;;;;;5073492;28;20490;-62
2021/07/08 11:43:38;;;;;;;8.27;3.90;;;;;;;;;;5073998;28;20825;-62
2021/07/08 11:46:06;;;;;;;4.17;3.77;;;;;;;;;;5073816;28;20449;-64
2021/07/08 11:48:35;;;;;;;6.17;2.90;;;;;;;;;;5073292;28;20479;-63
2021/07/08 11:51:03;;;;;;;4.33;2.83;;;;;;;;;;5073928;28;20507;-62
2021/07/08 11:53:30;;;;;;;3.70;2.43;;;;;;;;;;5073331;28;20468;-63
2021/07/08 11:55:58;;;;;;;4.30;2.83;;;;;;;;;;5073055;28;20446;-63
2021/07/08 11:58:26;;;;;;;6.47;3.23;;;;;;;;;;5073098;28;20518;-64
2021/07/08 12:00:55;;;;;;;3.67;2.80;;;;;;;;;;5073148;28;20455;-65
2021/07/08 12:03:27;;;;;;;4.03;2.87;;;;;;;;;;5072678;28;20566;-63
2021/07/08 12:05:58;;;;;;;5.47;2.60;;;;;;;;;;5073024;28;20868;-64
2021/07/08 12:08:26;;;;;;;5.00;3.47;;;;;;;;;;5072662;28;20917;-63
2021/07/08 12:11:06;;;;;;;5.50;3.17;;;;;;;;;;5072754;28;20458;-63
2021/07/08 12:13:35;;;;;;;4.93;3.43;;;;;;;;;;5072719;28;20475;-64
2021/07/08 12:16:06;;;;;;;7.53;3.03;;;;;;;;;;5073019;28;20442;-62
2021/07/08 12:18:40;;;;;;;5.03;3.47;;;;;;;;;;5072323;28;20455;-61
2021/07/08 12:21:17;;;;;;;6.63;2.80;;;;;;;;;;5073028;28;20944;-63
2021/07/08 12:23:44;;;;;;;3.90;3.00;;;;;;;;;;5073580;28;20467;-62
2021/07/08 12:26:21;;;;;;;6.23;3.07;;;;;;;;;;5073537;28;20515;-64
2021/07/08 12:28:49;;;;;;;4.93;3.03;;;;;;;;;;5074190;28;20469;-62
2021/07/08 12:31:18;;;;;;;10.10;3.00;;;;;;;;;;5076439;28;20451;-64
2021/07/08 12:34:01;;;;;;;5.60;2.83;;;;;;;;;;5076207;28;20468;-64
2021/07/08 12:36:29;;;;;;;8.97;2.67;;;;;;;;;;5077438;28;20460;-65
2021/07/08 12:38:57;;;;;;;3.80;2.70;;;;;;;;;;5077259;28;20442;-63
2021/07/08 12:41:24;;;;;;;4.77;2.60;;;;;;;;;;5076322;28;20857;-63
2021/07/08 12:43:51;;;;;;;4.80;2.93;;;;;;;;;;5076142;28;20540;-63
2021/07/08 12:46:20;;;;;;;3.47;2.40;;;;;;;;;;5076346;28;20449;-63
2021/07/08 12:48:47;;;;;;;4.23;2.80;;;;;;;;;;5076007;28;20946;-63
2021/07/08 12:51:14;;;;;;;5.17;2.83;;;;;;;;;;5076285;28;20866;-63
2021/07/08 12:53:43;;;;;;;4.17;2.63;;;;;;;;;;5076239;28;20973;-63
2021/07/08 12:56:11;;;;;;;4.00;2.50;;;;;;;;;;5076000;28;20481;-63
2021/07/08 12:58:38;;;;;;;3.47;2.40;;;;;;;;;;5076649;28;20453;-63
2021/07/08 13:01:06;;;;;;;3.70;2.27;;;;;;;;;;5076057;28;20939;-63
2021/07/08 13:03:36;;;;;;;4.63;2.30;;;;;;;;;;5076393;28;20468;-63
2021/07/08 13:06:09;;;;;;;4.57;2.43;;;;;;;;;;5075955;28;20514;-63
2021/07/08 13:08:36;;;;;;;3.13;2.37;;;;;;;;;;5075712;28;20539;-63
2021/07/08 13:11:07;;;;;;;7.30;2.83;;;;;;;;;;5075979;28;20561;-63
2021/07/08 13:13:37;;;;;;;4.50;2.13;;;;;;;;;;5076582;28;20492;-63
2021/07/08 13:16:04;;;;;;;6.50;2.53;;;;;;;;;;5076199;28;20503;-63
2021/07/08 13:18:32;;;;;;;5.83;2.50;;;;;;;;;;5076202;28;20445;-64
2021/07/08 13:21:12;;;;;;;10.17;3.40;;;;;;;;;;5076213;28;20446;-61
2021/07/08 13:23:40;;;;;;;3.77;2.10;;;;;;;;;;5076218;28;20818;-63
2021/07/08 13:26:11;;;;;;;3.30;2.00;;;;;;;;;;5076080;28;20476;-63
2021/07/08 13:28:38;;;;;;;4.77;2.27;;;;;;;;;;5076659;28;20465;-64
2021/07/08 13:31:10;;;;;;;3.70;2.53;;;;;;;;;;5077080;28;20478;-61
2021/07/08 13:33:38;;;;;;;6.30;2.70;;;;;;;;;;5075500;28;20981;-63
2021/07/08 13:36:07;;;;;;;5.37;2.60;;;;;;;;;;5075524;28;20495;-62
2021/07/08 13:38:36;;;;;;;3.97;2.07;;;;;;;;;;5075428;28;20545;-64
2021/07/08 13:41:08;;;;;;;3.57;1.93;;;;;;;;;;5075415;28;20448;-62
2021/07/08 13:43:49;;;;;;;3.27;2.43;;;;;;;;;;5075799;28;20469;-64
2021/07/08 13:46:18;;;;;;;4.60;2.57;;;;;;;;;;5075748;28;20440;-62
2021/07/08 13:48:46;;;;;;;4.33;2.47;;;;;;;;;;5075246;28;20486;-63
2021/07/08 13:51:13;;;;;;;9.00;2.90;;;;;;;;;;5075198;28;20513;-64
2021/07/08 13:53:42;;;;;;;2.53;2.30;;;;;;;;;;5075439;28;20535;-63
2021/07/08 13:56:14;;;;;;;5.57;3.10;;;;;;;;;;5075062;28;20937;-63
2021/07/08 13:58:42;;;;;;;3.83;2.40;;;;;;;;;;5075167;28;20426;-62
2021/07/08 14:01:09;;;;;;;4.30;2.73;;;;;;;;;;5075273;28;20449;-62
2021/07/08 14:03:36;;;;;;;4.57;3.03;;;;;;;;;;5074797;28;20987;-62
2021/07/08 14:06:04;;;;;;;5.20;2.70;;;;;;;;;;5074401;28;20941;-61
2021/07/08 14:08:35;;;;;;;4.40;2.60;;;;;;;;;;5074974;28;20442;-63
2021/07/08 14:11:04;;;;;;;6.73;2.70;;;;;;;;;;5074498;28;20468;-62
2021/07/08 14:13:32;;;;;;;3.47;2.70;;;;;;;;;;5074486;28;20517;-63
2021/07/08 14:15:59;;;;;;;2.77;2.13;;;;;;;;;;5074722;28;20506;-63
2021/07/08 14:18:26;;;;;;;5.40;2.80;;;;;;;;;;5075249;28;20446;-63
2021/07/08 14:20:53;;;;;;;2.87;2.17;;;;;;;;;;5075036;28;20450;-62
2021/07/08 14:23:21;;;;;;;3.73;2.13;;;;;;;;;;5074801;28;20467;-62
2021/07/08 14:25:48;;;;;;;4.20;2.40;;;;;;;;;;5075011;28;20443;-63
2021/07/08 14:28:17;;;;;;;3.80;2.13;;;;;;;;;;5074985;28;20505;-63
2021/07/08 14:30:44;;;;;;;3.90;2.20;;;;;;;;;;5074658;28;20911;-63
2021/07/08 14:33:12;;;;;;;6.07;2.10;;;;;;;;;;5074225;28;20472;-63
2021/07/08 14:35:39;;;;;;;4.90;2.37;;;;;;;;;;5075961;28;20450;-64
2021/07/08 14:38:07;;;;;;;6.80;2.53;;;;;;;;;;5075157;28;20518;-62
2021/07/08 14:40:35;;;;;;;2.10;1.70;;;;;;;;;;5074577;28;20447;-63
2021/07/08 14:43:08;;;;;;;3.20;2.10;;;;;;;;;;5074937;28;20532;-63
2021/07/08 14:45:38;;;;;;;4.40;2.07;;;;;;;;;;5074076;28;20481;-62
2021/07/08 14:48:05;;;;;;;4.47;2.60;;;;;;;;;;5074633;28;20526;-63
2021/07/08 14:50:33;;;;;;;6.30;3.70;;;;;;;;;;5073493;28;20926;-61
2021/07/08 14:53:00;;;;;;;3.47;2.60;;;;;;;;;;5074424;28;20465;-64
2021/07/08 14:55:27;;;;;;;2.73;2.40;;;;;;;;;;5074330;28;20493;-62
2021/07/08 14:57:54;;;;;;;3.60;2.20;;;;;;;;;;5074072;28;20931;-63